Terminal Aerodrome Forecast
Issued by NWS

Home | Current Version | Previous Version | Text Only | Print | Product List | Glossary On
Versions: 1 2 3 4 5 6 7 8 9 10 11 12 13 14 15 16
000
FTUS44 KTSA 232336
TAFRVS
TAF
KRVS 232336Z 2400/2424 17015G26KT P6SM SCT250
     FM240800 17010G19KT P6SM OVC100
     FM241200 17013G23KT P6SM VCSH OVC050
     FM241600 17016G26KT P6SM OVC025=

USA.gov is the U.S. government's official web portal to all federal, state and local government web resources and services.